sensor_id;sensor_type;location;lat;lon;timestamp;P1;durP1;ratioP1;P2;durP2;ratioP2
16977;SDS011;8605;52.548;4.918;2023-05-10T00:01:11;222.95;;;71.20;;
16977;SDS011;8605;52.548;4.918;2023-05-10T00:06:16;233.48;;;71.10;;
16977;SDS011;8605;52.548;4.918;2023-05-10T00:11:19;204.83;;;62.90;;
16977;SDS011;8605;52.548;4.918;2023-05-10T00:16:23;207.18;;;61.50;;
16977;SDS011;8605;52.548;4.918;2023-05-10T00:21:27;198.93;;;58.50;;
16977;SDS011;8605;52.548;4.918;2023-05-10T00:26:30;183.93;;;54.33;;
16977;SDS011;8605;52.548;4.918;2023-05-10T00:31:34;163.82;;;50.35;;
16977;SDS011;8605;52.548;4.918;2023-05-10T00:36:38;182.93;;;51.83;;
16977;SDS011;8605;52.548;4.918;2023-05-10T00:41:41;175.00;;;48.55;;
16977;SDS011;8605;52.548;4.918;2023-05-10T00:46:44;167.63;;;46.55;;
16977;SDS011;8605;52.548;4.918;2023-05-10T00:51:48;181.13;;;48.43;;
16977;SDS011;8605;52.548;4.918;2023-05-10T00:56:52;148.85;;;40.03;;
16977;SDS011;8605;52.548;4.918;2023-05-10T01:01:54;158.80;;;38.58;;
16977;SDS011;8605;52.548;4.918;2023-05-10T01:06:59;163.95;;;36.95;;
16977;SDS011;8605;52.548;4.918;2023-05-10T01:12:02;155.65;;;34.20;;
16977;SDS011;8605;52.548;4.918;2023-05-10T01:17:08;162.82;;;34.65;;
16977;SDS011;8605;52.548;4.918;2023-05-10T01:22:18;152.75;;;33.58;;
16977;SDS011;8605;52.548;4.918;2023-05-10T01:27:55;139.13;;;35.05;;
16977;SDS011;8605;52.548;4.918;2023-05-10T01:33:12;175.00;;;41.47;;
16977;SDS011;8605;52.548;4.918;2023-05-10T01:38:19;175.80;;;41.20;;
16977;SDS011;8605;52.548;4.918;2023-05-10T01:43:27;181.60;;;44.87;;
16977;SDS011;8605;52.548;4.918;2023-05-10T01:48:32;174.50;;;45.70;;
16977;SDS011;8605;52.548;4.918;2023-05-10T01:53:36;137.45;;;38.83;;
16977;SDS011;8605;52.548;4.918;2023-05-10T01:58:39;101.38;;;32.25;;
16977;SDS011;8605;52.548;4.918;2023-05-10T02:03:46;105.80;;;33.77;;
16977;SDS011;8605;52.548;4.918;2023-05-10T02:08:50;105.95;;;34.05;;
16977;SDS011;8605;52.548;4.918;2023-05-10T02:13:54;94.55;;;31.02;;
16977;SDS011;8605;52.548;4.918;2023-05-10T02:19:03;96.63;;;31.37;;
16977;SDS011;8605;52.548;4.918;2023-05-10T02:24:06;102.32;;;31.95;;
16977;SDS011;8605;52.548;4.918;2023-05-10T02:29:09;98.47;;;29.85;;
16977;SDS011;8605;52.548;4.918;2023-05-10T02:34:15;106.72;;;30.23;;
16977;SDS011;8605;52.548;4.918;2023-05-10T02:39:19;88.85;;;27.33;;
16977;SDS011;8605;52.548;4.918;2023-05-10T02:44:23;105.85;;;27.50;;
16977;SDS011;8605;52.548;4.918;2023-05-10T02:49:28;83.20;;;22.45;;
16977;SDS011;8605;52.548;4.918;2023-05-10T02:54:32;73.75;;;21.50;;
16977;SDS011;8605;52.548;4.918;2023-05-10T02:59:35;67.20;;;19.50;;
16977;SDS011;8605;52.548;4.918;2023-05-10T03:04:40;60.05;;;19.20;;
16977;SDS011;8605;52.548;4.918;2023-05-10T03:09:43;67.30;;;20.15;;
16977;SDS011;8605;52.548;4.918;2023-05-10T03:14:49;60.63;;;20.20;;
16977;SDS011;8605;52.548;4.918;2023-05-10T03:19:57;63.90;;;21.20;;
16977;SDS011;8605;52.548;4.918;2023-05-10T03:25:03;67.82;;;21.50;;
16977;SDS011;8605;52.548;4.918;2023-05-10T03:30:09;62.65;;;21.33;;
16977;SDS011;8605;52.548;4.918;2023-05-10T03:35:15;68.43;;;20.75;;
16977;SDS011;8605;52.548;4.918;2023-05-10T03:40:18;56.10;;;18.70;;
16977;SDS011;8605;52.548;4.918;2023-05-10T03:45:21;60.10;;;18.52;;
16977;SDS011;8605;52.548;4.918;2023-05-10T03:50:26;59.22;;;18.75;;
16977;SDS011;8605;52.548;4.918;2023-05-10T03:55:29;56.75;;;18.88;;
16977;SDS011;8605;52.548;4.918;2023-05-10T04:00:36;58.90;;;19.42;;
16977;SDS011;8605;52.548;4.918;2023-05-10T04:05:40;63.83;;;20.33;;
16977;SDS011;8605;52.548;4.918;2023-05-10T04:10:43;75.43;;;22.85;;
16977;SDS011;8605;52.548;4.918;2023-05-10T04:15:46;64.67;;;21.77;;
16977;SDS011;8605;52.548;4.918;2023-05-10T04:20:50;73.35;;;23.92;;
16977;SDS011;8605;52.548;4.918;2023-05-10T04:25:58;92.93;;;28.23;;
16977;SDS011;8605;52.548;4.918;2023-05-10T04:31:02;102.03;;;30.00;;
16977;SDS011;8605;52.548;4.918;2023-05-10T04:36:07;107.03;;;31.23;;
16977;SDS011;8605;52.548;4.918;2023-05-10T04:41:10;97.45;;;31.60;;
16977;SDS011;8605;52.548;4.918;2023-05-10T04:46:13;101.00;;;32.53;;
16977;SDS011;8605;52.548;4.918;2023-05-10T04:51:17;105.65;;;34.22;;
16977;SDS011;8605;52.548;4.918;2023-05-10T04:56:20;107.23;;;34.10;;
16977;SDS011;8605;52.548;4.918;2023-05-10T05:01:23;111.40;;;35.83;;
16977;SDS011;8605;52.548;4.918;2023-05-10T05:06:27;109.80;;;34.60;;
16977;SDS011;8605;52.548;4.918;2023-05-10T05:11:30;114.53;;;36.05;;
16977;SDS011;8605;52.548;4.918;2023-05-10T05:16:33;113.15;;;36.00;;
16977;SDS011;8605;52.548;4.918;2023-05-10T05:21:37;116.35;;;35.35;;
16977;SDS011;8605;52.548;4.918;2023-05-10T05:26:40;118.30;;;36.83;;
16977;SDS011;8605;52.548;4.918;2023-05-10T05:31:43;124.65;;;38.40;;
16977;SDS011;8605;52.548;4.918;2023-05-10T05:36:47;113.13;;;38.30;;
16977;SDS011;8605;52.548;4.918;2023-05-10T05:41:50;101.20;;;34.60;;
16977;SDS011;8605;52.548;4.918;2023-05-10T05:46:53;105.77;;;34.23;;
16977;SDS011;8605;52.548;4.918;2023-05-10T05:51:59;111.17;;;35.13;;
16977;SDS011;8605;52.548;4.918;2023-05-10T05:57:02;100.38;;;34.42;;
16977;SDS011;8605;52.548;4.918;2023-05-10T06:02:05;111.67;;;37.40;;
16977;SDS011;8605;52.548;4.918;2023-05-10T06:07:10;95.13;;;32.43;;
16977;SDS011;8605;52.548;4.918;2023-05-10T06:12:13;101.18;;;34.90;;
16977;SDS011;8605;52.548;4.918;2023-05-10T06:17:15;105.13;;;34.70;;
16977;SDS011;8605;52.548;4.918;2023-05-10T06:22:20;105.68;;;34.88;;
16977;SDS011;8605;52.548;4.918;2023-05-10T06:27:24;95.07;;;31.30;;
16977;SDS011;8605;52.548;4.918;2023-05-10T06:32:27;94.40;;;30.80;;
16977;SDS011;8605;52.548;4.918;2023-05-10T06:37:31;96.83;;;31.03;;
16977;SDS011;8605;52.548;4.918;2023-05-10T06:42:34;92.30;;;29.63;;
16977;SDS011;8605;52.548;4.918;2023-05-10T06:47:37;84.85;;;28.20;;
16977;SDS011;8605;52.548;4.918;2023-05-10T06:52:41;88.22;;;28.98;;
16977;SDS011;8605;52.548;4.918;2023-05-10T06:57:45;95.47;;;29.93;;
16977;SDS011;8605;52.548;4.918;2023-05-10T07:02:48;87.30;;;29.43;;
16977;SDS011;8605;52.548;4.918;2023-05-10T07:07:53;85.32;;;30.00;;
16977;SDS011;8605;52.548;4.918;2023-05-10T07:12:56;86.53;;;28.23;;
16977;SDS011;8605;52.548;4.918;2023-05-10T07:17:59;90.90;;;31.27;;
16977;SDS011;8605;52.548;4.918;2023-05-10T07:23:04;84.07;;;30.80;;
16977;SDS011;8605;52.548;4.918;2023-05-10T07:28:07;92.60;;;32.13;;
16977;SDS011;8605;52.548;4.918;2023-05-10T07:33:13;93.30;;;33.63;;
16977;SDS011;8605;52.548;4.918;2023-05-10T07:38:18;92.57;;;31.45;;
16977;SDS011;8605;52.548;4.918;2023-05-10T07:43:21;90.90;;;31.00;;
16977;SDS011;8605;52.548;4.918;2023-05-10T07:48:24;85.90;;;30.70;;
16977;SDS011;8605;52.548;4.918;2023-05-10T07:53:28;79.47;;;29.67;;
16977;SDS011;8605;52.548;4.918;2023-05-10T07:58:31;85.43;;;30.33;;
16977;SDS011;8605;52.548;4.918;2023-05-10T08:03:34;84.55;;;29.50;;
16977;SDS011;8605;52.548;4.918;2023-05-10T08:08:39;75.20;;;28.65;;
16977;SDS011;8605;52.548;4.918;2023-05-10T08:13:41;73.73;;;26.33;;
16977;SDS011;8605;52.548;4.918;2023-05-10T08:18:45;63.53;;;26.70;;
16977;SDS011;8605;52.548;4.918;2023-05-10T08:23:50;74.47;;;27.37;;
16977;SDS011;8605;52.548;4.918;2023-05-10T08:28:53;59.35;;;24.27;;
16977;SDS011;8605;52.548;4.918;2023-05-10T08:33:56;58.85;;;22.55;;
16977;SDS011;8605;52.548;4.918;2023-05-10T08:39:00;54.30;;;21.92;;
16977;SDS011;8605;52.548;4.918;2023-05-10T08:44:03;38.80;;;17.60;;
16977;SDS011;8605;52.548;4.918;2023-05-10T08:49:07;45.17;;;18.55;;
16977;SDS011;8605;52.548;4.918;2023-05-10T08:54:12;43.00;;;17.97;;
16977;SDS011;8605;52.548;4.918;2023-05-10T08:59:15;41.85;;;17.17;;
16977;SDS011;8605;52.548;4.918;2023-05-10T09:04:18;41.63;;;17.95;;
16977;SDS011;8605;52.548;4.918;2023-05-10T09:09:23;41.10;;;17.77;;
16977;SDS011;8605;52.548;4.918;2023-05-10T09:14:26;47.40;;;19.85;;
16977;SDS011;8605;52.548;4.918;2023-05-10T09:19:45;40.17;;;18.45;;
16977;SDS011;8605;52.548;4.918;2023-05-10T09:24:48;42.28;;;17.83;;
16977;SDS011;8605;52.548;4.918;2023-05-10T09:30:06;45.27;;;18.40;;
16977;SDS011;8605;52.548;4.918;2023-05-10T09:35:12;40.53;;;16.65;;
16977;SDS011;8605;52.548;4.918;2023-05-10T09:40:17;35.00;;;16.27;;
16977;SDS011;8605;52.548;4.918;2023-05-10T09:45:20;37.22;;;15.52;;
16977;SDS011;8605;52.548;4.918;2023-05-10T09:50:25;28.05;;;13.02;;
16977;SDS011;8605;52.548;4.918;2023-05-10T09:55:37;27.63;;;12.93;;
16977;SDS011;8605;52.548;4.918;2023-05-10T10:00:42;29.33;;;15.35;;
16977;SDS011;8605;52.548;4.918;2023-05-10T10:05:47;35.40;;;15.75;;
16977;SDS011;8605;52.548;4.918;2023-05-10T10:10:51;30.70;;;15.23;;
16977;SDS011;8605;52.548;4.918;2023-05-10T10:15:54;34.77;;;16.73;;
16977;SDS011;8605;52.548;4.918;2023-05-10T10:20:58;29.33;;;13.77;;
16977;SDS011;8605;52.548;4.918;2023-05-10T10:26:02;35.65;;;15.40;;
16977;SDS011;8605;52.548;4.918;2023-05-10T10:31:11;30.00;;;13.77;;
16977;SDS011;8605;52.548;4.918;2023-05-10T10:36:19;29.88;;;13.52;;
16977;SDS011;8605;52.548;4.918;2023-05-10T10:41:27;29.95;;;13.70;;
16977;SDS011;8605;52.548;4.918;2023-05-10T10:46:30;39.47;;;13.90;;
16977;SDS011;8605;52.548;4.918;2023-05-10T10:51:37;31.20;;;14.23;;
16977;SDS011;8605;52.548;4.918;2023-05-10T10:56:40;31.33;;;13.73;;
16977;SDS011;8605;52.548;4.918;2023-05-10T11:01:43;30.60;;;12.77;;
16977;SDS011;8605;52.548;4.918;2023-05-10T11:06:47;24.93;;;11.90;;
16977;SDS011;8605;52.548;4.918;2023-05-10T11:11:51;23.23;;;11.70;;
16977;SDS011;8605;52.548;4.918;2023-05-10T11:16:56;29.93;;;11.37;;
16977;SDS011;8605;52.548;4.918;2023-05-10T11:22:12;35.30;;;15.32;;
16977;SDS011;8605;52.548;4.918;2023-05-10T11:27:15;31.48;;;13.45;;
16977;SDS011;8605;52.548;4.918;2023-05-10T11:32:19;31.53;;;12.80;;
16977;SDS011;8605;52.548;4.918;2023-05-10T11:37:23;41.25;;;15.80;;
16977;SDS011;8605;52.548;4.918;2023-05-10T11:42:27;36.17;;;15.10;;
16977;SDS011;8605;52.548;4.918;2023-05-10T11:47:30;26.42;;;12.52;;
16977;SDS011;8605;52.548;4.918;2023-05-10T11:52:36;29.87;;;13.17;;
16977;SDS011;8605;52.548;4.918;2023-05-10T11:57:39;22.17;;;9.80;;
16977;SDS011;8605;52.548;4.918;2023-05-10T12:02:43;20.25;;;8.98;;
16977;SDS011;8605;52.548;4.918;2023-05-10T12:07:48;21.08;;;10.52;;
16977;SDS011;8605;52.548;4.918;2023-05-10T12:12:51;14.73;;;7.28;;
16977;SDS011;8605;52.548;4.918;2023-05-10T12:17:54;15.48;;;7.68;;
16977;SDS011;8605;52.548;4.918;2023-05-10T12:23:00;13.98;;;7.05;;
16977;SDS011;8605;52.548;4.918;2023-05-10T12:28:05;16.23;;;7.87;;
16977;SDS011;8605;52.548;4.918;2023-05-10T12:33:10;15.25;;;7.22;;
16977;SDS011;8605;52.548;4.918;2023-05-10T12:38:25;16.83;;;7.90;;
16977;SDS011;8605;52.548;4.918;2023-05-10T12:43:31;10.65;;;6.07;;
16977;SDS011;8605;52.548;4.918;2023-05-10T12:48:34;9.25;;;5.10;;
16977;SDS011;8605;52.548;4.918;2023-05-10T12:53:39;10.70;;;6.40;;
16977;SDS011;8605;52.548;4.918;2023-05-10T12:58:44;16.33;;;7.97;;
16977;SDS011;8605;52.548;4.918;2023-05-10T13:03:49;16.15;;;8.23;;
16977;SDS011;8605;52.548;4.918;2023-05-10T13:08:53;15.75;;;8.45;;
16977;SDS011;8605;52.548;4.918;2023-05-10T13:13:56;11.30;;;6.72;;
16977;SDS011;8605;52.548;4.918;2023-05-10T13:18:59;8.93;;;4.80;;
16977;SDS011;8605;52.548;4.918;2023-05-10T13:24:03;7.67;;;3.80;;
16977;SDS011;8605;52.548;4.918;2023-05-10T13:29:07;8.98;;;6.05;;
16977;SDS011;8605;52.548;4.918;2023-05-10T13:34:10;6.20;;;4.33;;
16977;SDS011;8605;52.548;4.918;2023-05-10T13:39:14;7.07;;;4.53;;
16977;SDS011;8605;52.548;4.918;2023-05-10T13:44:17;10.45;;;7.05;;
16977;SDS011;8605;52.548;4.918;2023-05-10T13:49:20;12.27;;;6.78;;
16977;SDS011;8605;52.548;4.918;2023-05-10T13:54:24;12.70;;;7.75;;
16977;SDS011;8605;52.548;4.918;2023-05-10T13:59:32;15.47;;;8.83;;
16977;SDS011;8605;52.548;4.918;2023-05-10T14:04:34;15.53;;;9.83;;
16977;SDS011;8605;52.548;4.918;2023-05-10T14:09:39;15.48;;;9.48;;
16977;SDS011;8605;52.548;4.918;2023-05-10T14:14:41;15.00;;;9.70;;
16977;SDS011;8605;52.548;4.918;2023-05-10T14:19:44;21.83;;;10.57;;
16977;SDS011;8605;52.548;4.918;2023-05-10T14:24:49;15.75;;;8.98;;
16977;SDS011;8605;52.548;4.918;2023-05-10T14:29:52;16.55;;;8.98;;
16977;SDS011;8605;52.548;4.918;2023-05-10T14:34:55;14.83;;;8.73;;
16977;SDS011;8605;52.548;4.918;2023-05-10T14:39:59;10.60;;;7.00;;
16977;SDS011;8605;52.548;4.918;2023-05-10T14:45:03;10.13;;;5.60;;
16977;SDS011;8605;52.548;4.918;2023-05-10T14:50:06;11.88;;;6.57;;
16977;SDS011;8605;52.548;4.918;2023-05-10T14:55:11;14.25;;;7.82;;
16977;SDS011;8605;52.548;4.918;2023-05-10T15:00:14;11.10;;;6.78;;
16977;SDS011;8605;52.548;4.918;2023-05-10T15:05:19;13.23;;;7.00;;
16977;SDS011;8605;52.548;4.918;2023-05-10T15:10:23;12.60;;;7.07;;
16977;SDS011;8605;52.548;4.918;2023-05-10T15:15:26;11.70;;;6.47;;
16977;SDS011;8605;52.548;4.918;2023-05-10T15:20:29;13.57;;;7.53;;
16977;SDS011;8605;52.548;4.918;2023-05-10T15:25:33;15.13;;;7.00;;
16977;SDS011;8605;52.548;4.918;2023-05-10T15:30:38;12.93;;;7.67;;
16977;SDS011;8605;52.548;4.918;2023-05-10T15:35:41;11.75;;;6.55;;
16977;SDS011;8605;52.548;4.918;2023-05-10T15:40:45;8.05;;;5.32;;
16977;SDS011;8605;52.548;4.918;2023-05-10T15:45:48;16.88;;;9.65;;
16977;SDS011;8605;52.548;4.918;2023-05-10T15:50:51;20.00;;;10.85;;
16977;SDS011;8605;52.548;4.918;2023-05-10T15:55:56;24.27;;;11.57;;
16977;SDS011;8605;52.548;4.918;2023-05-10T16:00:59;22.45;;;12.63;;
16977;SDS011;8605;52.548;4.918;2023-05-10T16:06:02;22.92;;;12.13;;
16977;SDS011;8605;52.548;4.918;2023-05-10T16:11:07;19.63;;;11.55;;
16977;SDS011;8605;52.548;4.918;2023-05-10T16:16:10;20.67;;;12.02;;
16977;SDS011;8605;52.548;4.918;2023-05-10T16:21:13;22.37;;;12.60;;
16977;SDS011;8605;52.548;4.918;2023-05-10T16:26:17;21.92;;;11.88;;
16977;SDS011;8605;52.548;4.918;2023-05-10T16:31:20;24.60;;;13.10;;
16977;SDS011;8605;52.548;4.918;2023-05-10T16:36:23;20.75;;;12.13;;
16977;SDS011;8605;52.548;4.918;2023-05-10T16:41:27;19.03;;;10.73;;
16977;SDS011;8605;52.548;4.918;2023-05-10T16:46:30;15.35;;;9.63;;
16977;SDS011;8605;52.548;4.918;2023-05-10T16:51:34;14.93;;;8.27;;
16977;SDS011;8605;52.548;4.918;2023-05-10T16:56:38;15.65;;;9.02;;
16977;SDS011;8605;52.548;4.918;2023-05-10T17:01:41;14.27;;;7.95;;
16977;SDS011;8605;52.548;4.918;2023-05-10T17:06:45;14.00;;;7.80;;
16977;SDS011;8605;52.548;4.918;2023-05-10T17:11:49;16.65;;;8.93;;
16977;SDS011;8605;52.548;4.918;2023-05-10T17:16:52;11.52;;;7.25;;
16977;SDS011;8605;52.548;4.918;2023-05-10T17:21:55;14.18;;;8.68;;
16977;SDS011;8605;52.548;4.918;2023-05-10T17:27:00;16.55;;;8.30;;
16977;SDS011;8605;52.548;4.918;2023-05-10T17:32:04;14.82;;;8.75;;
16977;SDS011;8605;52.548;4.918;2023-05-10T17:37:09;16.88;;;7.88;;
16977;SDS011;8605;52.548;4.918;2023-05-10T17:42:13;15.98;;;9.05;;
16977;SDS011;8605;52.548;4.918;2023-05-10T17:47:17;16.97;;;9.30;;
16977;SDS011;8605;52.548;4.918;2023-05-10T17:52:21;17.00;;;9.07;;
16977;SDS011;8605;52.548;4.918;2023-05-10T17:57:25;15.67;;;8.97;;
16977;SDS011;8605;52.548;4.918;2023-05-10T18:02:28;15.77;;;10.05;;
16977;SDS011;8605;52.548;4.918;2023-05-10T18:07:31;14.63;;;9.38;;
16977;SDS011;8605;52.548;4.918;2023-05-10T18:12:35;17.48;;;10.32;;
16977;SDS011;8605;52.548;4.918;2023-05-10T18:17:38;17.52;;;9.88;;
16977;SDS011;8605;52.548;4.918;2023-05-10T18:22:41;18.10;;;9.25;;
16977;SDS011;8605;52.548;4.918;2023-05-10T18:27:46;15.88;;;10.25;;
16977;SDS011;8605;52.548;4.918;2023-05-10T18:32:49;17.53;;;10.70;;
16977;SDS011;8605;52.548;4.918;2023-05-10T18:37:52;15.50;;;9.83;;
16977;SDS011;8605;52.548;4.918;2023-05-10T18:42:56;17.48;;;10.35;;
16977;SDS011;8605;52.548;4.918;2023-05-10T18:47:59;16.63;;;10.63;;
16977;SDS011;8605;52.548;4.918;2023-05-10T18:53:02;15.07;;;10.17;;
16977;SDS011;8605;52.548;4.918;2023-05-10T18:58:06;14.93;;;9.50;;
16977;SDS011;8605;52.548;4.918;2023-05-10T19:03:09;18.42;;;10.77;;
16977;SDS011;8605;52.548;4.918;2023-05-10T19:08:12;19.17;;;10.48;;
16977;SDS011;8605;52.548;4.918;2023-05-10T19:13:16;15.73;;;10.43;;
16977;SDS011;8605;52.548;4.918;2023-05-10T19:18:19;21.42;;;11.23;;
16977;SDS011;8605;52.548;4.918;2023-05-10T19:23:22;16.55;;;10.02;;
16977;SDS011;8605;52.548;4.918;2023-05-10T19:28:30;21.92;;;11.65;;
16977;SDS011;8605;52.548;4.918;2023-05-10T19:33:35;17.70;;;9.00;;
16977;SDS011;8605;52.548;4.918;2023-05-10T19:38:38;17.90;;;9.65;;
16977;SDS011;8605;52.548;4.918;2023-05-10T19:43:43;19.45;;;10.23;;
16977;SDS011;8605;52.548;4.918;2023-05-10T19:48:46;23.30;;;12.30;;
16977;SDS011;8605;52.548;4.918;2023-05-10T19:53:49;25.93;;;13.03;;
16977;SDS011;8605;52.548;4.918;2023-05-10T19:58:53;18.70;;;10.07;;
16977;SDS011;8605;52.548;4.918;2023-05-10T20:03:56;20.27;;;11.15;;
16977;SDS011;8605;52.548;4.918;2023-05-10T20:08:59;18.25;;;9.98;;
16977;SDS011;8605;52.548;4.918;2023-05-10T20:14:03;18.30;;;10.87;;
16977;SDS011;8605;52.548;4.918;2023-05-10T20:19:06;18.10;;;10.68;;
16977;SDS011;8605;52.548;4.918;2023-05-10T20:24:09;15.77;;;9.95;;
16977;SDS011;8605;52.548;4.918;2023-05-10T20:29:13;17.48;;;11.07;;
16977;SDS011;8605;52.548;4.918;2023-05-10T20:34:16;19.70;;;12.13;;
16977;SDS011;8605;52.548;4.918;2023-05-10T20:39:19;22.50;;;12.37;;
16977;SDS011;8605;52.548;4.918;2023-05-10T20:44:24;20.73;;;12.90;;
16977;SDS011;8605;52.548;4.918;2023-05-10T20:49:27;24.52;;;13.80;;
16977;SDS011;8605;52.548;4.918;2023-05-10T20:54:30;22.35;;;13.63;;
16977;SDS011;8605;52.548;4.918;2023-05-10T20:59:34;20.90;;;12.25;;
16977;SDS011;8605;52.548;4.918;2023-05-10T21:04:37;22.53;;;13.83;;
16977;SDS011;8605;52.548;4.918;2023-05-10T21:09:40;21.30;;;13.07;;
16977;SDS011;8605;52.548;4.918;2023-05-10T21:14:44;21.52;;;13.10;;
16977;SDS011;8605;52.548;4.918;2023-05-10T21:19:48;16.85;;;10.95;;
16977;SDS011;8605;52.548;4.918;2023-05-10T21:24:52;19.02;;;11.90;;
16977;SDS011;8605;52.548;4.918;2023-05-10T21:29:56;25.17;;;13.00;;
16977;SDS011;8605;52.548;4.918;2023-05-10T21:34:59;23.27;;;14.05;;
16977;SDS011;8605;52.548;4.918;2023-05-10T21:40:02;25.23;;;15.68;;
16977;SDS011;8605;52.548;4.918;2023-05-10T21:45:08;28.98;;;16.52;;
16977;SDS011;8605;52.548;4.918;2023-05-10T21:50:11;28.77;;;17.17;;
16977;SDS011;8605;52.548;4.918;2023-05-10T21:55:22;24.67;;;14.30;;
16977;SDS011;8605;52.548;4.918;2023-05-10T22:00:26;19.70;;;12.40;;
16977;SDS011;8605;52.548;4.918;2023-05-10T22:05:33;21.23;;;13.63;;
16977;SDS011;8605;52.548;4.918;2023-05-10T22:10:36;24.17;;;14.60;;
16977;SDS011;8605;52.548;4.918;2023-05-10T22:15:40;21.73;;;14.77;;
16977;SDS011;8605;52.548;4.918;2023-05-10T22:20:43;20.50;;;12.38;;
16977;SDS011;8605;52.548;4.918;2023-05-10T22:25:46;20.87;;;12.77;;
16977;SDS011;8605;52.548;4.918;2023-05-10T22:30:51;19.77;;;13.25;;
16977;SDS011;8605;52.548;4.918;2023-05-10T22:35:54;19.73;;;11.77;;
16977;SDS011;8605;52.548;4.918;2023-05-10T22:41:20;18.88;;;10.75;;
16977;SDS011;8605;52.548;4.918;2023-05-10T22:46:24;14.48;;;9.32;;
16977;SDS011;8605;52.548;4.918;2023-05-10T22:51:27;15.23;;;9.93;;
16977;SDS011;8605;52.548;4.918;2023-05-10T22:56:30;18.47;;;9.23;;
16977;SDS011;8605;52.548;4.918;2023-05-10T23:01:34;18.53;;;9.37;;
16977;SDS011;8605;52.548;4.918;2023-05-10T23:06:37;11.95;;;8.15;;
16977;SDS011;8605;52.548;4.918;2023-05-10T23:11:40;13.00;;;8.25;;
16977;SDS011;8605;52.548;4.918;2023-05-10T23:16:45;18.48;;;9.57;;
16977;SDS011;8605;52.548;4.918;2023-05-10T23:21:48;15.77;;;8.57;;
16977;SDS011;8605;52.548;4.918;2023-05-10T23:26:51;14.57;;;9.20;;
16977;SDS011;8605;52.548;4.918;2023-05-10T23:31:55;12.60;;;8.90;;
16977;SDS011;8605;52.548;4.918;2023-05-10T23:36:58;16.00;;;10.03;;
16977;SDS011;8605;52.548;4.918;2023-05-10T23:42:01;17.67;;;10.00;;
16977;SDS011;8605;52.548;4.918;2023-05-10T23:47:05;14.63;;;9.43;;
16977;SDS011;8605;52.548;4.918;2023-05-10T23:52:08;17.30;;;10.27;;
16977;SDS011;8605;52.548;4.918;2023-05-10T23:57:11;14.63;;;10.00;;
